Time;durP1;ratioP1;P1;durP2;ratioP2;P2;SDS_P1;SDS_P2;PMS_P1;PMS_P2;Temp;Humidity;BMP_temperature;BMP_pressure;BME280_temperature;BME280_humidity;BME280_pressure;Samples;Min_cycle;Max_cycle;Signal;HPM_P1;HPM_P2
2023/03/31 00:00:51;;;;;;;32.15;5.60;;;;;;;8.52;100.00;100337.44;5070461;28;20048;-76
2023/03/31 00:03:20;;;;;;;34.97;5.18;;;;;;;8.54;100.00;100322.22;5070466;28;20086;-76
2023/03/31 00:05:53;;;;;;;14.30;3.00;;;;;;;8.60;100.00;100319.03;5070220;28;20046;-75
2023/03/31 00:08:20;;;;;;;21.85;3.78;;;;;;;8.63;100.00;100308.13;5069818;28;20039;-76
2023/03/31 00:10:46;;;;;;;24.10;3.88;;;;;;;8.65;100.00;100307.00;5070170;28;20036;-75
2023/03/31 00:13:12;;;;;;;18.45;3.63;;;;;;;8.65;100.00;100296.38;5069851;28;20111;-75
2023/03/31 00:15:38;;;;;;;19.30;3.42;;;;;;;8.68;100.00;100292.63;5070050;28;20025;-76
2023/03/31 00:18:03;;;;;;;21.58;3.00;;;;;;;8.73;100.00;100285.09;5069323;28;20441;-76
2023/03/31 00:20:32;;;;;;;10.15;3.13;;;;;;;8.80;100.00;100283.53;5070049;28;20449;-76
2023/03/31 00:23:00;;;;;;;21.77;2.88;;;;;;;8.83;100.00;100274.47;5069698;28;20063;-75
2023/03/31 00:25:25;;;;;;;20.10;3.42;;;;;;;8.81;100.00;100273.78;5069980;28;20051;-75
2023/03/31 00:27:51;;;;;;;14.13;3.38;;;;;;;8.79;100.00;100271.28;5069964;28;20109;-76
2023/03/31 00:30:17;;;;;;;17.67;2.95;;;;;;;8.77;100.00;100267.09;5069594;28;20321;-75
2023/03/31 00:32:42;;;;;;;14.68;2.63;;;;;;;8.78;100.00;100269.59;5069872;28;20032;-75
2023/03/31 00:35:08;;;;;;;19.85;3.22;;;;;;;8.78;100.00;100253.69;5069740;28;20074;-76
2023/03/31 00:37:34;;;;;;;17.05;3.20;;;;;;;8.79;100.00;100255.38;5070097;28;20028;-75
2023/03/31 00:40:00;;;;;;;11.77;2.75;;;;;;;8.79;100.00;100243.88;5051057;28;20322;-75
2023/03/31 00:42:25;;;;;;;17.02;2.65;;;;;;;8.79;100.00;100243.88;5051458;28;20421;-75
2023/03/31 00:45:12;;;;;;;9.02;2.90;;;;;;;8.78;100.00;100234.28;5070043;28;20455;-75
2023/03/31 00:47:51;;;;;;;15.48;3.00;;;;;;;8.78;100.00;100228.97;5051278;28;20032;-76
2023/03/31 00:50:25;;;;;;;18.67;3.08;;;;;;;8.81;100.00;100226.03;5069312;28;20169;-75
2023/03/31 00:52:57;;;;;;;15.05;2.85;;;;;;;8.84;100.00;100217.78;5069245;28;20363;-75
2023/03/31 00:55:29;;;;;;;18.23;3.33;;;;;;;8.87;100.00;100214.00;5069886;28;20071;-76
2023/03/31 00:57:56;;;;;;;17.52;2.83;;;;;;;8.91;100.00;100204.78;5069380;28;20033;-76
2023/03/31 01:00:22;;;;;;;15.05;2.78;;;;;;;8.94;100.00;100197.38;5069269;28;20048;-76
2023/03/31 01:02:58;;;;;;;9.93;2.80;;;;;;;9.01;100.00;100192.31;5069561;28;20035;-76
2023/03/31 01:05:49;;;;;;;9.75;3.50;;;;;;;9.09;100.00;100197.75;5069301;28;20031;-75
2023/03/31 01:08:16;;;;;;;12.07;2.78;;;;;;;9.18;100.00;100183.59;5069393;28;20056;-76
2023/03/31 01:10:52;;;;;;;10.68;2.83;;;;;;;9.29;100.00;100179.91;5051426;28;20119;-75
2023/03/31 01:13:18;;;;;;;14.65;2.97;;;;;;;9.38;100.00;100169.41;5069246;28;20432;-75
2023/03/31 01:15:44;;;;;;;15.38;3.05;;;;;;;9.40;100.00;100164.78;5069182;28;20031;-75
2023/03/31 01:18:12;;;;;;;14.52;3.58;;;;;;;9.44;100.00;100166.16;5050802;28;20040;-76
2023/03/31 01:21:08;;;;;;;14.27;3.10;;;;;;;9.42;100.00;100152.19;5069491;28;20026;-76
2023/03/31 01:23:48;;;;;;;14.40;2.70;;;;;;;9.39;100.00;100155.13;5069707;28;20537;-75
2023/03/31 01:26:22;;;;;;;15.98;3.00;;;;;;;9.35;100.00;100147.47;5068942;28;20035;-75
2023/03/31 01:29:12;;;;;;;17.45;3.25;;;;;;;9.30;100.00;100139.13;5069369;28;20077;-76
2023/03/31 01:32:15;;;;;;;11.45;3.17;;;;;;;9.22;100.00;100131.06;5069466;28;20131;-78
2023/03/31 01:35:19;;;;;;;12.27;2.80;;;;;;;9.14;100.00;100128.31;5070113;28;20421;-77
2023/03/31 01:38:12;;;;;;;11.00;3.72;;;;;;;9.09;100.00;100122.59;5069370;28;20032;-75
2023/03/31 01:40:57;;;;;;;19.17;4.32;;;;;;;9.04;100.00;100120.38;5069359;28;20092;-77
2023/03/31 01:43:35;;;;;;;14.60;3.58;;;;;;;8.99;100.00;100104.06;5069519;28;20059;-75
2023/03/31 01:46:31;;;;;;;19.27;4.35;;;;;;;8.94;100.00;100098.34;5069667;28;20142;-75
2023/03/31 01:49:12;;;;;;;18.73;3.72;;;;;;;8.88;100.00;100102.44;5068910;28;20048;-74
2023/03/31 01:51:55;;;;;;;18.02;3.83;;;;;;;8.83;100.00;100089.59;5068715;28;20423;-76
2023/03/31 01:54:44;;;;;;;16.98;2.95;;;;;;;8.78;100.00;100083.91;5068776;28;20021;-76
2023/03/31 01:57:21;;;;;;;16.40;3.60;;;;;;;8.76;100.00;100069.97;5068515;28;20394;-77
2023/03/31 02:00:23;;;;;;;17.90;3.42;;;;;;;8.73;100.00;100074.72;5069282;28;20040;-75
2023/03/31 02:03:15;;;;;;;20.70;3.83;;;;;;;8.68;100.00;100059.25;5050884;28;20033;-76
2023/03/31 02:05:51;;;;;;;14.98;3.25;;;;;;;8.63;100.00;100043.78;5071208;28;20039;-75
2023/03/31 02:08:23;;;;;;;23.67;4.45;;;;;;;8.64;100.00;100048.09;5072017;28;20043;-74
2023/03/31 02:10:51;;;;;;;13.25;2.85;;;;;;;8.63;100.00;100038.47;5054719;28;20020;-75
2023/03/31 02:13:19;;;;;;;14.38;2.97;;;;;;;8.62;100.00;100033.31;5072067;28;20505;-74
2023/03/31 02:15:52;;;;;;;16.95;3.20;;;;;;;8.60;100.00;100014.91;5072525;28;20032;-74
2023/03/31 02:18:24;;;;;;;17.80;4.00;;;;;;;8.58;100.00;100013.38;5071775;28;20402;-74
2023/03/31 02:20:53;;;;;;;19.15;3.75;;;;;;;8.55;100.00;100001.22;5054119;28;20063;-74
2023/03/31 02:23:25;;;;;;;18.05;3.33;;;;;;;8.53;100.00;99995.25;5071675;28;20099;-73
2023/03/31 02:25:54;;;;;;;14.13;3.17;;;;;;;8.49;100.00;99993.03;5072075;28;20028;-73
2023/03/31 02:28:25;;;;;;;15.82;3.40;;;;;;;8.46;100.00;99979.09;5071638;28;20020;-73
2023/03/31 02:31:09;;;;;;;;;;;;;;;8.45;100.00;99980.06;5072657;28;20033;-74
2023/03/31 02:33:35;;;;;;;18.23;4.13;;;;;;;8.45;100.00;99968.66;5072221;28;20378;-73
2023/03/31 02:36:01;;;;;;;13.23;3.25;;;;;;;8.40;100.00;99963.72;5072125;28;20115;-73
2023/03/31 02:38:27;;;;;;;17.30;3.90;;;;;;;8.37;100.00;99952.59;5071546;28;20028;-74
2023/03/31 02:40:53;;;;;;;18.40;3.53;;;;;;;8.34;100.00;99945.75;5071758;28;20062;-74
2023/03/31 02:43:18;;;;;;;14.60;4.05;;;;;;;8.34;100.00;99936.97;5053484;28;20032;-74
2023/03/31 02:45:46;;;;;;;18.55;3.95;;;;;;;8.33;100.00;99928.22;5071780;28;20058;-74
2023/03/31 02:48:28;;;;;;;14.65;3.83;;;;;;;8.31;100.00;99932.81;5071955;28;20126;-75
2023/03/31 02:51:17;;;;;;;18.88;3.65;;;;;;;8.29;100.00;99919.69;5071831;28;20047;-74
2023/03/31 02:53:55;;;;;;;16.10;3.38;;;;;;;8.28;100.00;99906.59;5071517;28;20028;-75
2023/03/31 02:56:50;;;;;;;20.38;4.57;;;;;;;8.30;100.00;99908.13;5071076;28;20398;-74
2023/03/31 02:59:47;;;;;;;13.10;3.88;;;;;;;8.29;100.00;99897.66;5070609;28;20048;-74
2023/03/31 03:02:23;;;;;;;19.10;4.72;;;;;;;8.28;100.00;99885.38;5053152;28;20430;-75
2023/03/31 03:05:07;;;;;;;19.63;4.65;;;;;;;8.27;100.00;99883.72;5071422;28;20032;-74
2023/03/31 03:07:59;;;;;;;17.63;3.70;;;;;;;8.27;100.00;99884.56;5052868;28;20078;-73
2023/03/31 03:10:34;;;;;;;11.10;3.28;;;;;;;8.28;100.00;99880.94;5071045;28;20124;-73
2023/03/31 03:13:08;;;;;;;18.60;4.38;;;;;;;8.26;100.00;99874.94;5071227;28;20310;-73
2023/03/31 03:15:42;;;;;;;15.93;2.80;;;;;;;8.29;100.00;99868.50;5070904;28;20090;-75
2023/03/31 03:18:07;;;;;;;13.05;2.70;;;;;;;8.24;100.00;99871.59;5071254;28;20436;-74
2023/03/31 03:20:34;;;;;;;13.25;2.38;;;;;;;8.21;100.00;99857.81;5070881;28;20073;-74
2023/03/31 03:23:00;;;;;;;8.77;2.10;;;;;;;8.15;100.00;99853.94;5071082;28;20059;-74
2023/03/31 03:25:25;;;;;;;13.50;2.00;;;;;;;8.11;100.00;99841.97;5070852;28;20093;-73
2023/03/31 03:27:52;;;;;;;14.60;2.17;;;;;;;8.04;100.00;99836.41;5070925;28;20067;-73
2023/03/31 03:30:18;;;;;;;6.88;1.73;;;;;;;7.99;100.00;99838.69;5070895;28;20107;-74
2023/03/31 03:32:43;;;;;;;9.18;2.17;;;;;;;7.94;100.00;99825.03;5070879;28;20105;-74
2023/03/31 03:35:09;;;;;;;7.85;2.22;;;;;;;7.90;100.00;99821.03;5052713;28;20024;-72
2023/03/31 03:37:35;;;;;;;9.38;1.73;;;;;;;7.86;100.00;99801.94;5070413;28;20222;-73
2023/03/31 03:40:04;;;;;;;12.13;1.60;;;;;;;7.84;100.00;99798.59;5070597;28;20063;-72
2023/03/31 03:42:29;;;;;;;6.45;1.38;;;;;;;7.79;100.00;99790.25;5070119;28;20038;-73
2023/03/31 03:44:55;;;;;;;12.13;2.63;;;;;;;7.78;100.00;99780.66;5070530;28;20032;-73
2023/03/31 03:47:20;;;;;;;8.90;1.85;;;;;;;7.74;100.00;99766.84;5070116;28;20115;-73
2023/03/31 03:49:47;;;;;;;13.07;1.88;;;;;;;7.73;100.00;99756.41;5070134;28;20039;-73
2023/03/31 03:52:13;;;;;;;10.10;1.90;;;;;;;7.72;100.00;99747.66;5070009;28;20322;-72
2023/03/31 03:54:38;;;;;;;5.78;1.50;;;;;;;7.70;100.00;99746.97;5069415;28;20039;-73
2023/03/31 03:57:04;;;;;;;8.02;2.08;;;;;;;7.71;100.00;99734.56;5052158;28;20032;-74
2023/03/31 03:59:29;;;;;;;14.25;2.08;;;;;;;7.71;100.00;99731.91;5069456;28;20036;-73
2023/03/31 04:01:55;;;;;;;7.65;2.30;;;;;;;7.72;100.00;99723.00;5069988;28;20039;-74
2023/03/31 04:04:20;;;;;;;8.13;2.97;;;;;;;7.75;100.00;99707.63;5052396;28;20050;-74
2023/03/31 04:06:45;;;;;;;14.88;3.70;;;;;;;7.77;100.00;99704.84;5069997;28;20475;-73
2023/03/31 04:09:11;;;;;;;12.60;3.60;;;;;;;7.78;100.00;99701.22;5052205;28;20029;-73
2023/03/31 04:11:36;;;;;;;14.13;4.43;;;;;;;7.84;100.00;99691.84;5069722;28;20020;-73
2023/03/31 04:14:02;;;;;;;16.15;4.93;;;;;;;7.90;100.00;99701.84;5070459;28;20024;-73
2023/03/31 04:16:27;;;;;;;13.10;4.90;;;;;;;7.91;100.00;99680.50;5069747;28;20070;-73
2023/03/31 04:18:55;;;;;;;13.23;5.15;;;;;;;7.95;100.00;99676.53;5069757;28;20024;-74
2023/03/31 04:21:22;;;;;;;14.43;5.47;;;;;;;7.97;100.00;99665.81;5070142;28;20453;-73
2023/03/31 04:23:57;;;;;;;14.18;5.60;;;;;;;7.97;100.00;99668.44;5069337;28;20043;-73
2023/03/31 04:26:37;;;;;;;17.27;5.60;;;;;;;8.02;100.00;99662.72;5070087;28;20063;-73
2023/03/31 04:29:06;;;;;;;20.73;5.38;;;;;;;8.05;100.00;99647.34;5069408;28;20085;-73
2023/03/31 04:31:31;;;;;;;18.88;5.50;;;;;;;8.05;100.00;99650.00;5051199;28;20127;-73
2023/03/31 04:34:01;;;;;;;15.25;4.82;;;;;;;8.05;100.00;99644.69;5069947;28;20385;-73
2023/03/31 04:36:30;;;;;;;17.35;4.90;;;;;;;8.07;100.00;99649.84;5069745;28;20020;-73
2023/03/31 04:38:55;;;;;;;16.15;5.15;;;;;;;8.09;100.00;99642.56;5069642;28;20063;-73
2023/03/31 04:41:22;;;;;;;17.40;4.90;;;;;;;8.07;100.00;99633.94;5069575;28;20074;-73
2023/03/31 04:43:47;;;;;;;18.45;4.90;;;;;;;8.10;100.00;99633.63;5068884;28;20075;-73
2023/03/31 04:46:13;;;;;;;20.83;4.95;;;;;;;8.10;100.00;99625.69;5069508;28;20360;-73
2023/03/31 04:48:39;;;;;;;17.92;4.78;;;;;;;8.10;100.00;99605.31;5050899;28;20364;-73
2023/03/31 04:51:05;;;;;;;13.73;3.70;;;;;;;8.12;100.00;99605.16;5051419;28;20112;-73
2023/03/31 04:53:30;;;;;;;17.50;3.97;;;;;;;8.14;100.00;99602.41;5069093;28;20032;-72
2023/03/31 04:55:56;;;;;;;19.25;4.40;;;;;;;8.14;100.00;99605.03;5069231;28;20089;-73
2023/03/31 04:58:21;;;;;;;16.30;3.72;;;;;;;8.12;100.00;99594.56;5069493;28;20318;-73
2023/03/31 05:00:47;;;;;;;21.20;3.97;;;;;;;8.12;100.00;99592.78;5069080;28;20083;-73
2023/03/31 05:03:12;;;;;;;9.90;3.10;;;;;;;8.10;100.00;99591.25;5051110;28;20307;-73
2023/03/31 05:05:37;;;;;;;15.95;4.30;;;;;;;8.09;100.00;99586.94;5069101;28;20029;-73
2023/03/31 05:08:03;;;;;;;11.15;2.45;;;;;;;8.08;100.00;99588.75;5069414;28;20366;-74
2023/03/31 05:10:29;;;;;;;10.85;2.58;;;;;;;8.08;100.00;99578.16;5069471;28;20056;-74
2023/03/31 05:12:55;;;;;;;7.80;2.30;;;;;;;8.07;100.00;99576.50;5069104;28;20063;-73
2023/03/31 05:15:20;;;;;;;15.23;2.58;;;;;;;8.08;100.00;99574.69;5069385;28;20155;-74
2023/03/31 05:17:45;;;;;;;7.78;2.80;;;;;;;8.04;100.00;99571.50;5068990;28;20024;-72
2023/03/31 05:20:13;;;;;;;7.15;2.25;;;;;;;8.07;100.00;99568.53;5069039;28;20052;-73
2023/03/31 05:22:39;;;;;;;7.80;2.30;;;;;;;8.07;100.00;99570.38;5068465;28;20131;-73
2023/03/31 05:25:07;;;;;;;3.15;1.50;;;;;;;8.06;100.00;99560.75;5069229;28;20024;-73
2023/03/31 05:27:34;;;;;;;5.40;1.50;;;;;;;8.06;100.00;99569.53;5069605;28;20036;-74
2023/03/31 05:30:00;;;;;;;10.20;2.13;;;;;;;8.06;100.00;99558.09;5069393;28;20147;-74
2023/03/31 05:32:26;;;;;;;6.32;1.60;;;;;;;8.08;100.00;99561.44;5069188;28;20096;-74
2023/03/31 05:34:55;;;;;;;7.45;1.95;;;;;;;8.07;100.00;99555.28;5068926;28;20039;-73
2023/03/31 05:37:23;;;;;;;5.25;1.80;;;;;;;8.09;100.00;99547.19;5069105;28;20040;-73
2023/03/31 05:39:48;;;;;;;3.53;1.83;;;;;;;8.08;100.00;99562.25;5070148;28;20075;-73
2023/03/31 05:42:14;;;;;;;3.83;1.50;;;;;;;8.12;100.00;99553.03;5073236;28;20020;-73
2023/03/31 05:44:39;;;;;;;8.35;1.70;;;;;;;8.10;100.00;99547.03;5072373;28;20133;-73
2023/03/31 05:47:04;;;;;;;5.00;1.85;;;;;;;8.11;100.00;99546.06;5073029;28;20185;-74
2023/03/31 05:49:30;;;;;;;5.55;1.60;;;;;;;8.12;100.00;99550.38;5055002;28;20127;-74
2023/03/31 05:51:55;;;;;;;3.53;1.48;;;;;;;8.11;100.00;99538.13;5054321;28;20032;-75
2023/03/31 05:54:21;;;;;;;7.95;1.85;;;;;;;8.12;100.00;99538.94;5072722;28;20463;-74
2023/03/31 05:56:47;;;;;;;6.80;1.50;;;;;;;8.12;100.00;99545.09;5072196;28;20108;-74
2023/03/31 05:59:12;;;;;;;5.25;1.83;;;;;;;8.15;100.00;99540.44;5072503;28;20322;-73
2023/03/31 06:01:37;;;;;;;3.03;1.55;;;;;;;8.13;100.00;99532.66;5072681;28;20161;-74
2023/03/31 06:04:03;;;;;;;5.50;1.75;;;;;;;8.10;100.00;99527.66;5072402;28;20036;-73
2023/03/31 06:06:28;;;;;;;9.50;4.25;;;;;;;8.10;100.00;99525.03;5054514;28;20103;-74
2023/03/31 06:08:54;;;;;;;4.97;1.60;;;;;;;8.11;100.00;99524.03;5072139;28;20036;-73
2023/03/31 06:11:21;;;;;;;4.07;1.38;;;;;;;8.13;100.00;99524.72;5054427;28;20310;-73
2023/03/31 06:13:47;;;;;;;3.30;1.60;;;;;;;8.10;100.00;99519.72;5072067;28;20047;-73
2023/03/31 06:16:14;;;;;;;5.22;1.60;;;;;;;8.06;100.00;99511.25;5072678;28;20021;-74
2023/03/31 06:18:40;;;;;;;6.68;1.75;;;;;;;8.08;100.00;99513.75;5072395;28;20020;-73
2023/03/31 06:21:06;;;;;;;3.67;1.63;;;;;;;8.07;100.00;99510.25;5072580;28;20024;-74
2023/03/31 06:23:32;;;;;;;4.93;2.10;;;;;;;8.07;100.00;99506.78;5072336;28;20093;-74
2023/03/31 06:26:05;;;;;;;5.57;1.80;;;;;;;8.09;100.00;99512.75;5071611;28;20405;-73
2023/03/31 06:28:30;;;;;;;6.78;1.65;;;;;;;8.06;100.00;99505.13;5072373;28;20157;-73
2023/03/31 06:31:17;;;;;;;5.82;1.77;;;;;;;8.04;100.00;99494.69;5054105;28;20107;-73
2023/03/31 06:33:43;;;;;;;8.27;1.85;;;;;;;8.08;100.00;99500.50;5072081;28;20229;-73
2023/03/31 06:36:09;;;;;;;4.50;1.50;;;;;;;8.09;100.00;99487.09;5071990;28;20163;-74
2023/03/31 06:38:37;;;;;;;7.63;1.73;;;;;;;8.13;100.00;99487.63;5071880;28;20083;-73
2023/03/31 06:41:03;;;;;;;4.70;1.70;;;;;;;8.17;100.00;99488.16;5071521;28;20032;-73
2023/03/31 06:43:29;;;;;;;8.40;1.90;;;;;;;8.20;100.00;99482.53;5071898;28;20436;-76
2023/03/31 06:45:55;;;;;;;7.50;1.70;;;;;;;8.20;100.00;99485.19;5071164;28;20119;-74
2023/03/31 06:48:22;;;;;;;7.25;2.08;;;;;;;8.23;100.00;99479.56;5053483;28;20024;-73
2023/03/31 06:50:47;;;;;;;10.40;2.20;;;;;;;8.25;100.00;99467.81;5070782;28;20340;-75
2023/03/31 06:53:13;;;;;;;8.05;1.73;;;;;;;8.27;100.00;99471.16;5071853;28;20050;-76
2023/03/31 06:55:39;;;;;;;8.18;2.00;;;;;;;8.27;100.00;99476.44;5071606;28;20360;-79
2023/03/31 06:58:05;;;;;;;5.53;1.85;;;;;;;8.30;100.00;99470.84;5071277;28;20039;-77
2023/03/31 07:00:31;;;;;;;8.27;2.17;;;;;;;8.32;100.00;99470.66;5053258;28;20048;-77
2023/03/31 07:02:56;;;;;;;7.70;2.20;;;;;;;8.34;100.00;99459.91;5071026;28;20468;-78
2023/03/31 07:05:28;;;;;;;9.60;2.60;;;;;;;8.38;100.00;99459.44;5070976;28;20115;-74
2023/03/31 07:07:55;;;;;;;8.85;2.53;;;;;;;8.43;100.00;99464.25;5070835;28;20028;-75
2023/03/31 07:10:22;;;;;;;5.68;2.53;;;;;;;8.53;100.00;99466.81;5071458;28;20029;-73
2023/03/31 07:12:47;;;;;;;9.55;2.85;;;;;;;8.63;100.00;99465.69;5082265;28;20043;-74
2023/03/31 07:15:13;;;;;;;7.47;2.40;;;;;;;8.75;100.00;99452.16;5091572;28;20072;-75
2023/03/31 07:17:41;;;;;;;7.55;2.50;;;;;;;8.85;100.00;99449.34;5090957;28;20020;-75
2023/03/31 07:20:13;;;;;;;8.32;2.30;;;;;;;8.95;100.00;99458.81;5090787;28;20115;-75
2023/03/31 07:22:43;;;;;;;11.55;2.70;;;;;;;9.11;100.00;99452.72;5067004;28;20032;-75
2023/03/31 07:25:09;;;;;;;12.88;2.53;;;;;;;9.22;100.00;99443.63;5087252;28;20449;-76
2023/03/31 07:27:35;;;;;;;10.15;2.45;;;;;;;9.32;100.00;99439.00;5069957;28;20118;-74
2023/03/31 07:30:01;;;;;;;12.15;3.13;;;;;;;9.43;100.00;99447.63;5087752;28;20476;-74
2023/03/31 07:32:27;;;;;;;6.43;2.80;;;;;;;9.43;100.00;99439.66;5087966;28;20401;-74
2023/03/31 07:34:52;;;;;;;14.00;3.20;;;;;;;9.37;100.00;99450.94;5069635;28;20038;-74
2023/03/31 07:37:18;;;;;;;10.25;3.45;;;;;;;9.35;100.00;99440.50;5087999;28;20062;-74
2023/03/31 07:39:43;;;;;;;10.98;3.00;;;;;;;9.32;100.00;99435.50;5088097;28;20115;-76
2023/03/31 07:42:08;;;;;;;10.48;3.13;;;;;;;9.30;100.00;99435.69;5087691;28;20032;-74
2023/03/31 07:44:35;;;;;;;16.27;3.65;;;;;;;9.27;100.00;99443.13;5087891;28;20074;-74
2023/03/31 07:47:03;;;;;;;11.02;3.80;;;;;;;9.31;100.00;99423.22;5087746;28;20357;-74
2023/03/31 07:49:30;;;;;;;20.60;3.88;;;;;;;9.38;100.00;99424.22;5069585;28;20062;-75
2023/03/31 07:51:55;;;;;;;12.23;3.47;;;;;;;9.45;100.00;99416.41;5087547;28;20059;-74
2023/03/31 07:54:21;;;;;;;19.80;3.90;;;;;;;9.50;100.00;99414.09;5087751;28;20074;-74
2023/03/31 07:56:46;;;;;;;12.90;3.67;;;;;;;9.53;100.00;99403.16;5087274;28;20337;-74
2023/03/31 07:59:11;;;;;;;13.00;3.13;;;;;;;9.58;100.00;99413.25;5087195;28;20123;-74
2023/03/31 08:01:37;;;;;;;12.18;3.03;;;;;;;9.66;100.00;99414.09;5087693;28;20513;-75
2023/03/31 08:04:02;;;;;;;13.85;3.58;;;;;;;9.73;100.00;99408.91;5087074;28;20028;-75
2023/03/31 08:06:28;;;;;;;11.70;3.15;;;;;;;9.89;100.00;99394.78;5087691;28;20051;-75
2023/03/31 08:08:54;;;;;;;21.02;4.75;;;;;;;10.05;100.00;99399.25;5085773;28;20033;-73
2023/03/31 08:11:20;;;;;;;15.43;3.63;;;;;;;10.23;100.00;99394.50;5086358;28;20476;-73
2023/03/31 08:13:46;;;;;;;14.23;3.40;;;;;;;10.48;100.00;99399.78;5090171;28;20450;-74
2023/03/31 08:16:11;;;;;;;15.52;3.83;;;;;;;10.69;100.00;99393.84;5089763;28;20104;-75
2023/03/31 08:18:36;;;;;;;13.10;3.22;;;;;;;10.77;100.00;99388.44;5090511;28;20142;-75
2023/03/31 08:21:02;;;;;;;11.18;3.47;;;;;;;10.77;100.00;99383.13;5089983;28;20384;-74
2023/03/31 08:23:27;;;;;;;12.80;3.40;;;;;;;10.81;100.00;99388.94;5090476;28;20548;-75
2023/03/31 08:25:52;;;;;;;13.32;3.33;;;;;;;10.71;100.00;99375.84;5090011;28;20120;-74
2023/03/31 08:28:18;;;;;;;13.35;3.50;;;;;;;10.51;100.00;99387.94;5090069;28;20250;-73
2023/03/31 08:30:43;;;;;;;12.48;3.10;;;;;;;10.36;100.00;99374.53;5090632;28;20449;-73
2023/03/31 08:33:11;;;;;;;20.77;4.32;;;;;;;10.04;100.00;99374.47;5089833;28;20111;-74
2023/03/31 08:35:37;;;;;;;20.05;3.75;;;;;;;9.80;100.00;99366.59;5072193;28;20421;-74
2023/03/31 08:38:02;;;;;;;15.77;3.67;;;;;;;9.68;100.00;99371.44;5089965;28;20028;-75
2023/03/31 08:40:29;;;;;;;16.92;3.40;;;;;;;9.63;100.00;99365.78;5090204;28;20487;-74
2023/03/31 08:43:03;;;;;;;11.23;3.25;;;;;;;9.61;100.00;99363.28;5090284;28;20051;-77
2023/03/31 08:45:33;;;;;;;19.63;3.38;;;;;;;9.61;100.00;99359.81;5090301;28;20042;-73
2023/03/31 08:48:25;;;;;;;18.95;3.90;;;;;;;9.56;100.00;99354.19;5090113;28;20055;-75
2023/03/31 08:50:59;;;;;;;18.08;3.50;;;;;;;9.55;100.00;99349.88;5076668;28;20051;-75
2023/03/31 08:53:32;;;;;;;23.75;3.53;;;;;;;9.58;100.00;99336.25;5089621;28;20047;-74
2023/03/31 08:55:58;;;;;;;16.52;4.13;;;;;;;9.65;100.00;99339.91;5089820;28;20093;-75
2023/03/31 08:58:31;;;;;;;18.13;3.50;;;;;;;9.87;100.00;99359.59;5089562;28;20086;-75
2023/03/31 09:01:22;;;;;;;18.50;3.97;;;;;;;10.28;100.00;99337.34;5089984;28;20044;-74
2023/03/31 09:04:22;;;;;;;16.55;3.25;;;;;;;10.51;100.00;99327.63;5090013;28;20085;-74
2023/03/31 09:07:01;;;;;;;22.50;3.47;;;;;;;10.76;100.00;99335.41;5090158;28;20028;-74
2023/03/31 09:09:51;;;;;;;20.48;3.78;;;;;;;11.04;100.00;99335.72;5089649;28;20423;-75
2023/03/31 09:12:25;;;;;;;14.40;2.78;;;;;;;10.99;100.00;99322.13;5089429;28;20036;-74
2023/03/31 09:15:00;;;;;;;19.83;3.30;;;;;;;10.92;100.00;99316.69;5074434;28;20020;-74
2023/03/31 09:17:30;;;;;;;17.80;3.60;;;;;;;10.85;100.00;99321.09;5074977;28;20060;-75
2023/03/31 09:20:12;;;;;;;24.88;3.38;;;;;;;10.74;100.00;99326.81;5093964;28;20090;-74
2023/03/31 09:23:00;;;;;;;13.75;3.08;;;;;;;10.59;100.00;99316.91;5093648;28;20475;-75
2023/03/31 09:25:31;;;;;;;15.15;3.00;;;;;;;10.48;100.00;99313.81;5078531;28;20032;-74
2023/03/31 09:27:59;;;;;;;15.85;3.15;;;;;;;10.45;100.00;99315.03;5093694;28;20043;-74
2023/03/31 09:30:32;;;;;;;24.80;3.50;;;;;;;10.32;100.00;99306.75;5093575;28;20032;-75
2023/03/31 09:33:11;;;;;;;20.98;4.03;;;;;;;10.21;100.00;99307.97;5093857;28;20069;-75
2023/03/31 09:35:37;;;;;;;15.88;2.90;;;;;;;10.11;100.00;99310.03;5093683;28;20073;-74
2023/03/31 09:38:02;;;;;;;14.23;3.22;;;;;;;10.04;100.00;99302.72;5093665;28;20512;-74
2023/03/31 09:40:28;;;;;;;16.98;3.45;;;;;;;10.01;100.00;99294.28;5092839;28;20028;-74
2023/03/31 09:43:04;;;;;;;15.63;3.40;;;;;;;9.94;100.00;99288.00;5093780;28;20028;-75
2023/03/31 09:45:32;;;;;;;23.85;4.55;;;;;;;9.91;100.00;99298.97;5093279;28;20281;-75
2023/03/31 09:48:02;;;;;;;15.93;3.40;;;;;;;9.81;100.00;99292.03;5093677;28;20036;-74
2023/03/31 09:50:28;;;;;;;21.08;3.72;;;;;;;9.75;100.00;99284.75;5074795;28;20469;-75
2023/03/31 09:52:57;;;;;;;20.83;4.40;;;;;;;9.68;100.00;99267.84;5093160;28;20138;-74
2023/03/31 09:55:41;;;;;;;17.50;3.65;;;;;;;9.65;100.00;99286.78;5093294;28;20024;-75
2023/03/31 09:58:13;;;;;;;17.08;3.92;;;;;;;9.68;100.00;99279.28;5093333;28;20085;-75
2023/03/31 10:01:02;;;;;;;14.93;3.45;;;;;;;9.69;100.00;99282.81;5092970;28;20047;-73
2023/03/31 10:03:35;;;;;;;17.83;3.20;;;;;;;9.65;100.00;99279.63;5093027;28;20131;-74
2023/03/31 10:06:01;;;;;;;21.67;3.53;;;;;;;9.68;100.00;99286.44;5093283;28;20040;-74
2023/03/31 10:08:26;;;;;;;20.25;4.03;;;;;;;9.71;100.00;99283.44;5074618;28;20032;-75
2023/03/31 10:11:01;;;;;;;19.60;4.60;;;;;;;9.68;100.00;99289.91;5093141;28;20042;-74
2023/03/31 10:13:34;;;;;;;22.23;3.83;;;;;;;9.67;100.00;99282.13;5092619;28;20104;-74
2023/03/31 10:16:08;;;;;;;21.23;3.60;;;;;;;9.78;100.00;99287.06;5074811;28;20321;-74
2023/03/31 10:18:39;;;;;;;21.90;3.80;;;;;;;9.92;100.00;99263.44;5092303;28;20107;-75
2023/03/31 10:21:06;;;;;;;17.58;3.40;;;;;;;9.85;100.00;99281.88;5074359;28;20101;-75
2023/03/31 10:23:34;;;;;;;21.60;4.22;;;;;;;9.86;100.00;99275.59;5092644;28;20060;-74
2023/03/31 10:26:01;;;;;;;17.83;3.42;;;;;;;9.83;100.00;99271.44;5092250;28;20093;-75
2023/03/31 10:28:31;;;;;;;21.58;3.97;;;;;;;9.87;100.00;99274.59;5092783;28;20472;-73
2023/03/31 10:31:02;;;;;;;21.02;4.00;;;;;;;9.84;100.00;99280.25;5093001;28;20134;-74
2023/03/31 10:33:33;;;;;;;16.15;3.47;;;;;;;9.97;100.00;99277.03;5092898;28;20024;-75
2023/03/31 10:35:59;;;;;;;;;;;;;;;10.07;100.00;99274.97;5094990;28;20043;-74
2023/03/31 10:38:36;;;;;;;15.75;3.30;;;;;;;10.14;100.00;99283.91;5093427;28;20268;-73
2023/03/31 10:41:02;;;;;;;9.27;2.35;;;;;;;10.13;100.00;99263.66;5093316;28;20104;-73
2023/03/31 10:43:40;;;;;;;13.90;3.08;;;;;;;10.27;100.00;99262.09;5091869;28;20036;-73
2023/03/31 10:46:07;;;;;;;9.32;2.13;;;;;;;10.37;100.00;99270.69;5074417;28;20050;-74
2023/03/31 10:48:39;;;;;;;13.43;2.42;;;;;;;10.43;100.00;99263.03;5050934;28;20476;-74
2023/03/31 10:51:18;;;;;;;12.82;3.25;;;;;;;10.47;100.00;99264.31;5069568;28;20063;-74
2023/03/31 10:53:52;;;;;;;16.98;3.10;;;;;;;10.43;100.00;99258.53;5069275;28;20082;-74
2023/03/31 10:56:47;;;;;;;20.58;3.17;;;;;;;10.41;100.00;99257.88;5068830;28;20129;-72
2023/03/31 10:59:31;;;;;;;11.43;3.00;;;;;;;10.46;100.00;99249.38;5057812;28;20453;-74
2023/03/31 11:02:14;;;;;;;12.98;3.00;;;;;;;10.35;100.00;99250.63;5069318;28;20036;-73
2023/03/31 11:05:21;;;;;;;13.40;2.63;;;;;;;10.43;100.00;99233.78;5068776;28;20044;-73
2023/03/31 11:08:37;;;;;;;15.50;3.17;;;;;;;10.46;100.00;99234.22;5028475;28;20055;-74
2023/03/31 11:11:33;;;;;;;15.32;2.83;;;;;;;10.59;100.00;99242.44;4986960;28;20038;-75
2023/03/31 11:14:04;;;;;;;13.55;2.40;;;;;;;10.52;100.00;99243.34;4987232;28;20038;-75
2023/03/31 11:16:37;;;;;;;11.48;2.40;;;;;;;10.39;100.00;99236.78;5051451;28;20044;-74
2023/03/31 11:19:40;;;;;;;17.00;2.40;;;;;;;10.34;100.00;99230.34;5069011;28;20104;-74
2023/03/31 11:22:24;;;;;;;12.25;2.55;;;;;;;10.19;100.00;99223.09;5068609;28;20457;-74
2023/03/31 11:24:58;;;;;;;9.15;2.55;;;;;;;10.09;100.00;99221.66;5068742;28;20028;-73
2023/03/31 11:27:40;;;;;;;11.45;2.53;;;;;;;9.97;100.00;99226.53;5068649;28;20079;-74
2023/03/31 11:30:30;;;;;;;12.38;2.97;;;;;;;9.87;100.00;99237.41;5050495;28;20044;-74
2023/03/31 11:33:01;;;;;;;7.05;2.65;;;;;;;9.71;100.00;99222.34;5050470;28;20040;-75
2023/03/31 11:35:42;;;;;;;12.88;2.47;;;;;;;9.62;100.00;99236.69;5068115;28;20021;-74
2023/03/31 11:38:43;;;;;;;12.27;2.55;;;;;;;9.62;100.00;99224.22;5067330;28;20388;-73
2023/03/31 11:41:36;;;;;;;13.68;2.55;;;;;;;9.76;100.00;99224.50;5042295;28;20059;-72
2023/03/31 11:44:08;;;;;;;7.78;2.20;;;;;;;9.82;100.00;99223.78;5068378;28;20485;-75